Terminal Aerodrome Forecast
Issued by NWS Lubbock, TX

Home | Current Version | Previous Version | Text Only | Print | Product List | Glossary On
Versions: 1 2 3 4 5 6 7 8 9 10 11 12 13 14 15 16 17 18 19 20 21 22 23 24 25 26 27 28
000
FTUS44 KLUB 200000 AAA
TAFLBB
TAF AMD
KLBB 200020Z 2000/2024 09006KT P6SM BKN012
     FM200300 13005KT 6SM BR OVC010
     FM200700 19006KT 3SM BR OVC006
     FM201800 22010KT P6SM SCT010 BKN250=

USA.gov is the U.S. government's official web portal to all federal, state and local government web resources and services.